createdAt,value
2023-01-07T00:00:10.972Z,11.60
2023-01-07T00:02:39.545Z,11.70
2023-01-07T00:05:08.396Z,11.60
2023-01-07T00:07:36.860Z,11.60
2023-01-07T00:10:05.734Z,11.60
2023-01-07T00:12:34.268Z,11.60
2023-01-07T00:15:03.986Z,11.50
2023-01-07T00:17:32.416Z,11.60
2023-01-07T00:20:00.843Z,11.50
2023-01-07T00:22:29.207Z,11.40
2023-01-07T00:24:57.552Z,11.40
2023-01-07T00:27:25.990Z,11.40
2023-01-07T00:29:54.776Z,11.40
2023-01-07T00:32:44.579Z,11.30
2023-01-07T00:35:23.199Z,11.40
2023-01-07T00:37:52.205Z,11.30
2023-01-07T00:40:21.509Z,11.30
2023-01-07T00:42:56.977Z,11.20
2023-01-07T00:45:26.466Z,11.20
2023-01-07T00:47:56.304Z,11.20
2023-01-07T00:50:26.032Z,11.20
2023-01-07T00:52:54.594Z,11.30
2023-01-07T00:55:23.722Z,11.30
2023-01-07T00:57:52.461Z,11.30
2023-01-07T01:00:23.100Z,11.30
2023-01-07T01:02:52.606Z,11.30
2023-01-07T01:05:22.868Z,11.40
2023-01-07T01:07:51.350Z,11.30
2023-01-07T01:10:21.914Z,11.40
2023-01-07T01:12:50.374Z,11.40
2023-01-07T01:15:18.922Z,11.40
2023-01-07T01:17:47.342Z,11.40
2023-01-07T01:20:16.757Z,11.40
2023-01-07T01:22:47.006Z,11.40
2023-01-07T01:25:16.107Z,11.40
2023-01-07T01:27:44.523Z,11.40
2023-01-07T01:30:13.559Z,11.40
2023-01-07T01:32:41.885Z,11.30
2023-01-07T01:35:10.729Z,11.40
2023-01-07T01:37:39.165Z,11.40
2023-01-07T01:40:12.008Z,11.40
2023-01-07T01:42:40.451Z,11.30
2023-01-07T01:45:11.190Z,11.30
2023-01-07T01:47:44.213Z,11.30
2023-01-07T01:50:18.149Z,11.40
2023-01-07T01:52:52.821Z,11.30
2023-01-07T01:55:28.623Z,11.20
2023-01-07T01:58:01.935Z,11.20
2023-01-07T02:00:31.031Z,11.10
2023-01-07T02:03:00.884Z,11.10
2023-01-07T02:05:35.457Z,11.20
2023-01-07T02:08:04.161Z,11.20
2023-01-07T02:10:35.187Z,11.20
2023-01-07T02:13:22.736Z,11.20
2023-01-07T02:16:00.773Z,11.20
2023-01-07T02:18:49.066Z,11.20
2023-01-07T02:21:31.277Z,11.10
2023-01-07T02:24:50.508Z,11.10
2023-01-07T02:27:33.601Z,11.10
2023-01-07T02:30:32.744Z,11.10
2023-01-07T02:33:17.543Z,11.20
2023-01-07T02:36:05.554Z,11.20
2023-01-07T02:38:43.773Z,11.30
2023-01-07T02:41:20.840Z,11.30
2023-01-07T02:43:56.640Z,11.30
2023-01-07T02:46:31.095Z,11.30
2023-01-07T02:49:02.043Z,11.30
2023-01-07T02:51:35.216Z,11.30
2023-01-07T02:54:04.535Z,11.30
2023-01-07T02:56:44.591Z,11.20
2023-01-07T02:59:41.547Z,11.20
2023-01-07T03:02:27.612Z,11.20
2023-01-07T03:05:15.225Z,11.20
2023-01-07T03:08:01.374Z,11.20
2023-01-07T03:10:37.899Z,11.20
2023-01-07T03:13:09.333Z,11.20
2023-01-07T03:15:42.339Z,11.20
2023-01-07T03:18:17.242Z,11.20
2023-01-07T03:20:51.867Z,11.20
2023-01-07T03:23:23.937Z,11.10
2023-01-07T03:25:55.368Z,11.10
2023-01-07T03:28:28.502Z,11.00
2023-01-07T03:30:58.712Z,11.00
2023-01-07T03:33:32.588Z,10.90
2023-01-07T03:36:04.936Z,10.90
2023-01-07T03:38:34.910Z,10.90
2023-01-07T03:41:03.784Z,10.90
2023-01-07T03:43:31.147Z,10.90
2023-01-07T03:46:00.806Z,10.90
2023-01-07T03:48:29.344Z,10.90
2023-01-07T03:50:57.767Z,10.90
2023-01-07T03:53:27.471Z,10.90
2023-01-07T03:55:55.927Z,10.90
2023-01-07T03:58:24.241Z,11.00
2023-01-07T04:00:55.572Z,11.00
2023-01-07T04:03:24.063Z,11.10
2023-01-07T04:05:52.472Z,11.10
2023-01-07T04:08:20.826Z,11.10
2023-01-07T04:10:50.646Z,11.20
2023-01-07T04:13:19.033Z,11.20
2023-01-07T04:15:47.422Z,11.10
2023-01-07T04:18:15.787Z,11.10
2023-01-07T04:20:47.920Z,11.20
2023-01-07T04:23:17.144Z,11.20
2023-01-07T04:25:48.257Z,11.20
2023-01-07T04:28:18.406Z,11.20
2023-01-07T04:30:47.304Z,11.20
2023-01-07T04:33:15.801Z,11.10
2023-01-07T04:35:47.471Z,11.20
2023-01-07T04:38:15.802Z,11.10
2023-01-07T04:40:44.307Z,11.10
2023-01-07T04:43:12.751Z,11.10
2023-01-07T04:45:42.605Z,11.00
2023-01-07T04:48:10.985Z,11.00
2023-01-07T04:50:39.411Z,11.00
2023-01-07T04:53:07.827Z,10.90
2023-01-07T04:55:36.319Z,10.90
2023-01-07T04:58:04.805Z,10.90
2023-01-07T05:00:34.248Z,10.90
2023-01-07T05:03:04.010Z,10.90
2023-01-07T05:05:32.543Z,10.90
2023-01-07T05:08:01.034Z,10.90
2023-01-07T05:10:30.351Z,11.00
2023-01-07T05:12:58.794Z,11.10
2023-01-07T05:15:28.406Z,11.10
2023-01-07T05:17:57.268Z,11.10
2023-01-07T05:20:27.455Z,11.20
2023-01-07T05:22:55.757Z,11.20
2023-01-07T05:25:24.172Z,11.20
2023-01-07T05:27:52.591Z,11.20
2023-01-07T05:30:21.282Z,11.20
2023-01-07T05:32:49.705Z,11.30
2023-01-07T05:35:18.198Z,11.30
2023-01-07T05:37:47.998Z,11.30
2023-01-07T05:40:16.485Z,11.20
2023-01-07T05:42:44.824Z,11.30
2023-01-07T05:45:13.575Z,11.30
2023-01-07T05:47:41.910Z,11.30
2023-01-07T05:50:10.392Z,11.30
2023-01-07T05:52:38.811Z,11.30
2023-01-07T05:55:09.631Z,11.20
2023-01-07T05:57:38.229Z,11.30
2023-01-07T06:00:07.942Z,11.20
2023-01-07T06:02:36.280Z,11.20
2023-01-07T06:05:04.769Z,11.20
2023-01-07T06:07:33.178Z,11.20
2023-01-07T06:10:03.059Z,11.30
2023-01-07T06:12:34.154Z,11.20
2023-01-07T06:15:02.711Z,11.20
2023-01-07T06:17:31.175Z,11.20
2023-01-07T06:19:59.581Z,11.30
2023-01-07T06:22:27.980Z,11.20
2023-01-07T06:24:56.329Z,11.20
2023-01-07T06:27:24.889Z,11.30
2023-01-07T06:29:54.645Z,11.20
2023-01-07T06:32:23.039Z,11.20
2023-01-07T06:34:51.390Z,11.20
2023-01-07T06:37:19.787Z,11.20
2023-01-07T06:39:48.380Z,11.20
2023-01-07T06:42:16.760Z,11.20
2023-01-07T06:44:45.232Z,11.20
2023-01-07T06:47:15.047Z,11.20
2023-01-07T06:49:43.572Z,11.20
2023-01-07T06:52:12.369Z,11.20
2023-01-07T06:54:40.906Z,11.20
2023-01-07T06:57:09.302Z,11.20
2023-01-07T06:59:37.757Z,11.10
2023-01-07T07:02:06.402Z,11.10
2023-01-07T07:04:36.140Z,11.10
2023-01-07T07:07:04.608Z,11.10
2023-01-07T07:09:33.022Z,11.20
2023-01-07T07:12:01.389Z,11.10
2023-01-07T07:14:29.979Z,11.10
2023-01-07T07:16:58.660Z,11.10
2023-01-07T07:19:26.981Z,11.10
2023-01-07T07:21:56.877Z,11.20
2023-01-07T07:24:25.370Z,11.20
2023-01-07T07:26:53.820Z,11.10
2023-01-07T07:29:22.172Z,11.10
2023-01-07T07:31:50.562Z,11.10
2023-01-07T07:34:18.992Z,11.10
2023-01-07T07:36:47.468Z,11.10
2023-01-07T07:39:17.332Z,11.10
2023-01-07T07:41:45.692Z,11.10
2023-01-07T07:44:14.064Z,11.10
2023-01-07T07:46:42.445Z,11.10
2023-01-07T07:49:12.551Z,11.10
2023-01-07T07:51:41.093Z,11.20
2023-01-07T07:54:09.474Z,11.10
2023-01-07T07:56:39.209Z,11.10
2023-01-07T07:59:07.776Z,11.10
2023-01-07T08:01:37.444Z,11.20
2023-01-07T08:04:06.291Z,11.20
2023-01-07T08:06:35.340Z,11.10
2023-01-07T08:09:03.656Z,11.10
2023-01-07T08:11:32.000Z,11.20
2023-01-07T08:14:01.773Z,11.20
2023-01-07T08:16:30.280Z,11.20
2023-01-07T08:18:58.753Z,11.20
2023-01-07T08:21:27.096Z,11.20
2023-01-07T08:23:55.502Z,11.20
2023-01-07T08:26:24.424Z,11.30
2023-01-07T08:28:53.183Z,11.30
2023-01-07T08:31:23.178Z,11.30
2023-01-07T08:33:51.620Z,11.30
2023-01-07T08:36:23.734Z,11.30
2023-01-07T08:38:53.272Z,11.30
2023-01-07T08:41:22.003Z,11.20
2023-01-07T08:43:50.550Z,11.20
2023-01-07T08:46:19.236Z,11.20
2023-01-07T08:48:49.270Z,11.30
2023-01-07T08:51:17.880Z,11.30
2023-01-07T08:53:46.481Z,11.30
2023-01-07T08:56:15.154Z,11.30
2023-01-07T08:58:43.643Z,11.30
2023-01-07T09:01:12.324Z,11.30
2023-01-07T09:03:40.940Z,11.30
2023-01-07T09:06:10.933Z,11.30
2023-01-07T09:08:40.585Z,11.40
2023-01-07T09:11:09.158Z,11.40
2023-01-07T09:13:37.528Z,11.30
2023-01-07T09:16:06.660Z,11.30
2023-01-07T09:18:35.150Z,11.30
2023-01-07T09:21:03.600Z,11.30
2023-01-07T09:23:33.310Z,11.30
2023-01-07T09:26:02.005Z,11.40
2023-01-07T09:28:30.518Z,11.40
2023-01-07T09:31:00.091Z,11.50
2023-01-07T09:33:29.529Z,11.60
2023-01-07T09:35:57.921Z,11.60
2023-01-07T09:38:26.250Z,11.60
2023-01-07T09:40:57.948Z,11.60
2023-01-07T09:43:59.482Z,11.70
2023-01-07T09:46:20.525Z,11.60
2023-01-07T09:48:54.102Z,11.60
2023-01-07T09:51:28.646Z,11.60
2023-01-07T09:54:01.462Z,11.60
2023-01-07T09:56:33.644Z,11.60
2023-01-07T09:59:03.212Z,11.50
2023-01-07T10:01:39.398Z,11.60
2023-01-07T10:04:22.024Z,11.60
2023-01-07T10:06:58.897Z,11.80
2023-01-07T10:09:37.317Z,11.80
2023-01-07T10:12:14.827Z,11.80
2023-01-07T10:15:19.900Z,11.90
2023-01-07T10:18:12.363Z,12.00
2023-01-07T10:20:48.040Z,12.00
2023-01-07T10:23:21.719Z,12.10
2023-01-07T10:25:52.292Z,12.10
2023-01-07T10:28:26.655Z,12.10
2023-01-07T10:30:55.108Z,12.20
2023-01-07T10:33:26.938Z,12.30
2023-01-07T10:36:05.457Z,12.50
2023-01-07T10:38:38.412Z,12.40
2023-01-07T10:41:13.232Z,12.40
2023-01-07T10:43:57.044Z,12.30
2023-01-07T10:46:43.254Z,12.20
2023-01-07T10:49:36.924Z,12.00
2023-01-07T10:52:14.978Z,11.90
2023-01-07T10:55:04.232Z,11.80
2023-01-07T10:57:34.049Z,11.70
2023-01-07T11:00:07.781Z,11.70
2023-01-07T11:02:36.357Z,11.80
2023-01-07T11:05:05.261Z,11.80
2023-01-07T11:07:43.554Z,11.70
2023-01-07T11:10:16.956Z,11.70
2023-01-07T11:12:49.505Z,11.70
2023-01-07T11:15:23.520Z,11.90
2023-01-07T11:17:57.259Z,11.80
2023-01-07T11:20:47.273Z,11.80
2023-01-07T11:23:33.744Z,11.80
2023-01-07T11:26:20.065Z,11.70
2023-01-07T11:28:54.131Z,11.70
2023-01-07T11:31:44.020Z,11.70
2023-01-07T11:34:21.180Z,11.80
2023-01-07T11:36:49.854Z,12.10
2023-01-07T11:39:22.070Z,12.20
2023-01-07T11:41:56.712Z,12.20
2023-01-07T11:44:25.664Z,12.20
2023-01-07T11:46:56.086Z,12.20
2023-01-07T11:49:28.840Z,12.20
2023-01-07T11:51:58.078Z,12.20
2023-01-07T11:54:28.073Z,12.10
2023-01-07T11:57:13.171Z,12.00
2023-01-07T11:59:41.697Z,12.10
2023-01-07T12:02:26.176Z,12.10
2023-01-07T12:05:15.013Z,12.20
2023-01-07T12:07:46.905Z,12.10
2023-01-07T12:10:36.351Z,12.20
2023-01-07T12:13:08.169Z,12.30
2023-01-07T12:15:47.985Z,12.20
2023-01-07T12:18:44.833Z,12.30
2023-01-07T12:21:35.145Z,12.30
2023-01-07T12:24:20.879Z,12.30
2023-01-07T12:26:56.851Z,12.40
2023-01-07T12:29:40.326Z,12.40
2023-01-07T12:32:21.288Z,12.40
2023-01-07T12:34:57.068Z,12.40
2023-01-07T12:37:32.435Z,12.40
2023-01-07T12:40:18.515Z,12.40
2023-01-07T12:42:51.689Z,12.40
2023-01-07T12:45:27.331Z,12.40
2023-01-07T12:48:02.563Z,12.30
2023-01-07T12:50:38.590Z,12.30
2023-01-07T12:53:14.978Z,12.30
2023-01-07T12:55:47.680Z,12.30
2023-01-07T12:58:19.977Z,12.30
2023-01-07T13:00:54.592Z,12.40
2023-01-07T13:03:32.499Z,12.30
2023-01-07T13:06:06.856Z,12.30
2023-01-07T13:08:44.531Z,12.30
2023-01-07T13:11:45.338Z,12.30
2023-01-07T13:14:23.312Z,12.30
2023-01-07T13:16:51.828Z,12.30
2023-01-07T13:19:20.327Z,12.40
2023-01-07T13:22:06.269Z,12.40
2023-01-07T13:24:54.678Z,12.50
2023-01-07T13:27:29.536Z,12.50
2023-01-07T13:30:13.869Z,12.60
2023-01-07T13:33:04.078Z,12.60
2023-01-07T13:35:58.411Z,12.60
2023-01-07T13:38:43.045Z,12.60
2023-01-07T13:41:24.445Z,12.60
2023-01-07T13:44:05.026Z,12.60
2023-01-07T13:46:36.263Z,12.60
2023-01-07T13:49:05.043Z,12.50
2023-01-07T13:51:37.787Z,12.50
2023-01-07T13:54:11.705Z,12.40
2023-01-07T13:56:41.979Z,12.30
2023-01-07T13:59:30.602Z,12.20
2023-01-07T14:02:22.458Z,12.10
2023-01-07T14:05:04.129Z,12.00
2023-01-07T14:07:33.041Z,11.90
2023-01-07T14:10:02.496Z,11.70
2023-01-07T14:13:02.482Z,11.60
2023-01-07T14:15:54.713Z,11.50
2023-01-07T14:18:56.884Z,11.50
2023-01-07T14:21:46.902Z,11.50
2023-01-07T14:24:41.799Z,11.50
2023-01-07T14:27:26.298Z,11.50
2023-01-07T14:30:02.841Z,11.50
2023-01-07T14:32:38.075Z,11.50
2023-01-07T14:35:20.176Z,11.50
2023-01-07T14:37:49.569Z,11.50
2023-01-07T14:40:54.735Z,11.50
2023-01-07T14:44:14.785Z,11.50
2023-01-07T14:46:52.015Z,11.50
2023-01-07T14:49:48.947Z,11.50
2023-01-07T14:52:40.542Z,11.30
2023-01-07T14:55:50.064Z,11.10
2023-01-07T14:58:57.359Z,11.00
2023-01-07T15:02:03.430Z,10.80
2023-01-07T15:05:05.762Z,10.70
2023-01-07T15:07:37.193Z,10.60
2023-01-07T15:10:36.441Z,10.60
2023-01-07T15:13:24.312Z,10.70
2023-01-07T15:16:06.364Z,10.70
2023-01-07T15:18:48.117Z,10.80
2023-01-07T15:21:25.781Z,10.80
2023-01-07T15:24:03.063Z,10.80
2023-01-07T15:26:44.575Z,10.80
2023-01-07T15:29:21.033Z,10.70
2023-01-07T15:31:56.818Z,10.70
2023-01-07T15:34:30.825Z,10.50
2023-01-07T15:37:00.510Z,10.30
2023-01-07T15:39:33.255Z,10.20
2023-01-07T15:42:03.628Z,10.10
2023-01-07T15:44:41.511Z,10.10
2023-01-07T15:47:31.906Z,10.10
2023-01-07T15:50:25.868Z,10.10
2023-01-07T15:52:55.753Z,10.10
2023-01-07T15:55:26.221Z,10.00
2023-01-07T15:57:59.909Z,10.00
2023-01-07T16:00:28.377Z,10.00
2023-01-07T16:02:57.582Z,10.00
2023-01-07T16:05:27.449Z,10.00
2023-01-07T16:07:58.199Z,9.90
2023-01-07T16:10:28.852Z,9.90
2023-01-07T16:12:58.777Z,9.80
2023-01-07T16:15:30.430Z,9.70
2023-01-07T16:18:00.113Z,9.70
2023-01-07T16:20:33.109Z,9.60
2023-01-07T16:23:18.833Z,9.60
2023-01-07T16:25:50.427Z,9.60
2023-01-07T16:28:22.858Z,9.60
2023-01-07T16:30:52.833Z,9.60
2023-01-07T16:33:24.051Z,9.60
2023-01-07T16:35:57.255Z,9.60
2023-01-07T16:38:27.020Z,9.60
2023-01-07T16:40:56.179Z,9.60
2023-01-07T16:43:34.130Z,9.60
2023-01-07T16:46:27.483Z,9.70
2023-01-07T16:49:19.961Z,9.70
2023-01-07T16:51:51.893Z,9.70
2023-01-07T16:54:37.080Z,9.70
2023-01-07T16:57:07.238Z,9.80
2023-01-07T16:59:39.151Z,9.80
2023-01-07T17:02:24.477Z,9.80
2023-01-07T17:04:52.902Z,9.80
2023-01-07T17:07:25.046Z,9.80
2023-01-07T17:09:54.727Z,9.80
2023-01-07T17:12:30.696Z,9.70
2023-01-07T17:14:59.049Z,9.70
2023-01-07T17:17:31.266Z,9.70
2023-01-07T17:20:14.330Z,9.60
2023-01-07T17:22:45.296Z,9.70
2023-01-07T17:25:15.306Z,9.70
2023-01-07T17:27:49.857Z,9.80
2023-01-07T17:30:20.772Z,9.80
2023-01-07T17:32:50.843Z,9.90
2023-01-07T17:35:22.259Z,9.90
2023-01-07T17:37:52.944Z,10.00
2023-01-07T17:40:21.870Z,10.00
2023-01-07T17:43:08.826Z,10.00
2023-01-07T17:45:37.324Z,10.10
2023-01-07T17:48:14.799Z,10.20
2023-01-07T17:50:43.828Z,10.20
2023-01-07T17:53:22.804Z,10.30
2023-01-07T17:55:51.134Z,10.30
2023-01-07T17:58:28.956Z,10.40
2023-01-07T18:00:58.841Z,10.40
2023-01-07T18:03:28.233Z,10.50
2023-01-07T18:05:56.663Z,10.50
2023-01-07T18:08:26.724Z,10.60
2023-01-07T18:11:12.979Z,10.60
2023-01-07T18:13:41.741Z,10.70
2023-01-07T18:16:13.530Z,10.60
2023-01-07T18:18:41.968Z,10.70
2023-01-07T18:21:12.716Z,10.70
2023-01-07T18:23:42.479Z,10.80
2023-01-07T18:26:11.790Z,10.80
2023-01-07T18:28:40.293Z,10.80
2023-01-07T18:31:09.259Z,10.80
2023-01-07T18:33:37.629Z,10.90
2023-01-07T18:36:06.417Z,10.90
2023-01-07T18:38:35.069Z,10.90
2023-01-07T18:41:05.277Z,10.90
2023-01-07T18:43:34.048Z,10.90
2023-01-07T18:46:02.637Z,10.90
2023-01-07T18:48:31.561Z,10.90
2023-01-07T18:50:59.964Z,10.80
2023-01-07T18:53:28.323Z,10.80
2023-01-07T18:56:02.253Z,10.70
2023-01-07T18:58:32.373Z,10.70
2023-01-07T19:01:04.232Z,10.60
2023-01-07T19:03:32.754Z,10.60
2023-01-07T19:06:01.203Z,10.60
2023-01-07T19:08:29.610Z,10.60
2023-01-07T19:10:57.926Z,10.60
2023-01-07T19:13:26.317Z,10.60
2023-01-07T19:15:57.283Z,10.70
2023-01-07T19:18:25.661Z,10.70
2023-01-07T19:20:54.073Z,10.70
2023-01-07T19:23:22.561Z,10.70
2023-01-07T19:25:58.780Z,10.60
2023-01-07T19:28:27.397Z,10.60
2023-01-07T19:30:57.201Z,10.60
2023-01-07T19:33:25.640Z,10.50
2023-01-07T19:36:02.582Z,10.50
2023-01-07T19:38:31.237Z,10.50
2023-01-07T19:40:59.639Z,10.50
2023-01-07T19:43:28.098Z,10.50
2023-01-07T19:45:58.409Z,10.60
2023-01-07T19:48:26.937Z,10.60
2023-01-07T19:50:57.023Z,10.80
2023-01-07T19:53:26.117Z,10.90
2023-01-07T19:55:55.306Z,10.90
2023-01-07T19:58:23.643Z,11.00
2023-01-07T20:00:52.285Z,11.00
2023-01-07T20:03:22.071Z,10.90
2023-01-07T20:05:50.478Z,10.90
2023-01-07T20:08:18.894Z,11.00
2023-01-07T20:10:57.141Z,11.00
2023-01-07T20:13:25.822Z,10.90
2023-01-07T20:15:54.849Z,10.90
2023-01-07T20:18:24.634Z,10.90
2023-01-07T20:20:56.975Z,10.90
2023-01-07T20:23:25.370Z,11.00
2023-01-07T20:25:55.011Z,11.00
2023-01-07T20:28:23.459Z,11.00
2023-01-07T20:30:51.817Z,11.00
2023-01-07T20:33:20.199Z,11.10
2023-01-07T20:36:00.552Z,11.10
2023-01-07T20:38:29.018Z,11.10
2023-01-07T20:40:57.361Z,11.10
2023-01-07T20:43:26.030Z,11.10
2023-01-07T20:45:59.906Z,11.10
2023-01-07T20:48:28.393Z,11.00
2023-01-07T20:50:58.515Z,11.00
2023-01-07T20:53:28.540Z,10.90
2023-01-07T20:56:00.768Z,11.00
2023-01-07T20:58:30.947Z,11.00
2023-01-07T21:00:59.546Z,11.00
2023-01-07T21:03:27.953Z,11.00
2023-01-07T21:05:58.827Z,11.00
2023-01-07T21:08:27.811Z,11.10
2023-01-07T21:10:57.141Z,11.10
2023-01-07T21:13:26.059Z,11.10
2023-01-07T21:15:54.601Z,11.10
2023-01-07T21:18:23.079Z,11.10
2023-01-07T21:20:51.580Z,11.00
2023-01-07T21:23:21.339Z,11.00
2023-01-07T21:25:50.302Z,11.00
2023-01-07T21:28:18.727Z,11.10
2023-01-07T21:30:47.167Z,11.10
2023-01-07T21:33:16.481Z,11.20
2023-01-07T21:35:44.962Z,11.10
2023-01-07T21:38:14.745Z,11.20
2023-01-07T21:40:45.459Z,11.10
2023-01-07T21:43:13.802Z,11.10
2023-01-07T21:45:42.214Z,11.10
2023-01-07T21:48:10.781Z,11.10
2023-01-07T21:50:40.051Z,11.10
2023-01-07T21:53:08.494Z,11.10
2023-01-07T21:55:39.693Z,11.10
2023-01-07T21:58:09.482Z,11.10
2023-01-07T22:00:37.881Z,11.10
2023-01-07T22:03:06.489Z,11.10
2023-01-07T22:05:34.856Z,11.10
2023-01-07T22:08:03.186Z,11.00
2023-01-07T22:10:31.580Z,11.10
2023-01-07T22:12:59.925Z,11.10
2023-01-07T22:15:31.054Z,11.10
2023-01-07T22:17:59.432Z,11.20
2023-01-07T22:20:27.808Z,11.20
2023-01-07T22:22:56.202Z,11.20
2023-01-07T22:25:24.624Z,11.10
2023-01-07T22:27:57.736Z,11.10
2023-01-07T22:30:28.238Z,11.10
2023-01-07T22:32:59.376Z,11.00
2023-01-07T22:35:28.091Z,10.80
2023-01-07T22:37:57.323Z,10.60
2023-01-07T22:40:25.731Z,10.30
2023-01-07T22:42:57.887Z,10.00
2023-01-07T22:45:32.969Z,9.80
2023-01-07T22:48:03.964Z,9.70
2023-01-07T22:50:33.681Z,9.60
2023-01-07T22:53:02.453Z,9.50
2023-01-07T22:55:31.043Z,9.30
2023-01-07T22:58:00.302Z,9.20
2023-01-07T23:00:42.375Z,9.20
2023-01-07T23:03:12.200Z,9.10
2023-01-07T23:05:40.666Z,9.10
2023-01-07T23:08:09.728Z,9.10
2023-01-07T23:10:38.458Z,9.10
2023-01-07T23:13:07.761Z,9.10
2023-01-07T23:15:37.422Z,9.20
2023-01-07T23:18:08.020Z,9.20
2023-01-07T23:20:40.517Z,9.20
2023-01-07T23:23:09.553Z,9.30
2023-01-07T23:25:38.284Z,9.30
2023-01-07T23:28:06.708Z,9.20
2023-01-07T23:30:35.462Z,9.10
2023-01-07T23:33:04.010Z,9.00
2023-01-07T23:35:32.486Z,9.00
2023-01-07T23:38:02.257Z,9.00
2023-01-07T23:40:30.761Z,9.00
2023-01-07T23:42:59.275Z,9.10
2023-01-07T23:45:27.785Z,9.10
2023-01-07T23:47:56.273Z,9.10
2023-01-07T23:50:24.763Z,9.00
2023-01-07T23:52:53.167Z,9.00
2023-01-07T23:55:23.006Z,9.00
2023-01-07T23:57:51.539Z,8.90
